• Join FlightAware (Why Join?)
  • Login
  • US Flag 
03:40PM EDT


 

Airport Tracker/Info


-or-


 

Live Flight TrackerFlight Track Log ✈ SKW5500 ✈ 24-Apr-2013 ✈ KASE - KDEN

Flight Track Log - Related Links

Times and Time Zones

All times are in EDT time to prevent confusion due to time zone crossing. See the SKW5500 flight status page for this flight to view local times or setup timezone preferences in your user account.

Time Position Orientation Groundspeed Altitude Reporting Facility
EDT Latitude Longitude Course Direction KTS MPH feet Rate Location/Type
06:41PM 39.2492 -106.8728 90° East 177 204 25,000  Level Denver Center
06:42PM 39.2739 -106.9403 295° West 239 275 11,800 -5,040 Descending Denver Center
06:43PM 39.3178 -107.0003 313° West 255 293 14,700 2,400 Climbing Denver Center
06:44PM 39.3876 -106.6609 101° East  Level FlightAware Approximate
06:44PM 39.3658 -106.9283 49° Northeast 295 339 16,800  Level Denver Center
06:45PM 39.3639 -106.5363 104° East  Level FlightAware Approximate
06:45PM 39.3608 -106.8047 93° East 350 403 17,500  Level Denver Center
06:46PM 39.3333 -106.4166 90° East  Level FlightAware Approximate
06:46PM 39.3564 -106.6603 92° East 398 458 19,400  Level Denver Center
06:47PM 39.3525 -106.4933 92° East 409 471 22,200 1,740 Climbing Denver Center
06:48PM 39.2636 -106.3675 132° Southeast 427 491 23,000 360 Climbing Denver Center
06:49PM 39.1800 -106.2633 136° Southeast 436 502 23,000  Level Denver Center
06:50PM 39.1128 -106.1494 127° Southeast 433 498 23,000  Level Denver Center
06:51PM 39.1536 -105.9761 73° East 436 502 23,000  Level Denver Center
06:52PM 39.2164 -105.8453 58° Northeast 425 489 23,000 -720 Level Denver Center
06:53PM 39.2769 -105.7194 58° Northeast 413 475 21,600 -1,500 Descending Denver Center
06:54PM 39.3339 -105.6061 57° Northeast 384 442 19,900 -1,560 Descending Denver Center
06:55PM 39.3856 -105.4992 58° Northeast 359 413 18,400 -1,260 Descending Denver Center
06:56PM 39.3981 -105.3792 82° East 326 375 17,400 -1,320 Descending Denver Center
06:57PM 39.4050 -105.2533 86° East 325 374 15,700 -1,560 Descending Denver Center
06:58PM 39.4117 -105.1367 86° East 326 375 14,200 -1,320 Descending Denver Center
06:59PM 39.4161 -105.0144 87° East 320 368 13,000 -600 Descending Denver Center
07:00PM 39.4206 -104.9100 87° East 299 344 13,000 -360 Level Denver Center
07:01PM 39.4442 -104.8169 72° East 262 302 12,300 -540 Descending Denver Center
07:03PM 39.4844 -104.7428 55° Northeast 261 300 12,000 -600 Descending Denver Center
07:04PM 39.5483 -104.6914 32° Northeast 252 290 11,100 -1,140 Descending Denver Center
07:05PM 39.6144 -104.6697 14° North 246 283 9,700 -1,260 Descending Denver Center
07:06PM 39.6750 -104.6644 North 196 226 8,500 -1,260 Descending Denver Center
07:07PM 39.7247 -104.6622 North 183 211 7,200 -960 Descending Denver Center
07:08PM 39.7736 -104.6611 North 179 206 6,600 -720 Descending Denver Center
07:09PM 39.8144 -104.6608 360° North 137 158 5,800 -780 Descending Denver Center